sensor_id;sensor_type;location;lat;lon;timestamp;P1;durP1;ratioP1;P2;durP2;ratioP2
64483;SDS011;50862;51.642;7.964;2022-09-09T00:00:59;10.98;;;10.45;;
64483;SDS011;50862;51.642;7.964;2022-09-09T00:03:37;11.43;;;10.55;;
64483;SDS011;50862;51.642;7.964;2022-09-09T00:06:14;10.50;;;9.75;;
64483;SDS011;50862;51.642;7.964;2022-09-09T00:08:51;10.52;;;9.93;;
64483;SDS011;50862;51.642;7.964;2022-09-09T00:11:29;10.48;;;9.68;;
64483;SDS011;50862;51.642;7.964;2022-09-09T00:14:08;9.20;;;8.65;;
64483;SDS011;50862;51.642;7.964;2022-09-09T00:16:46;10.43;;;9.98;;
64483;SDS011;50862;51.642;7.964;2022-09-09T00:19:22;9.73;;;9.30;;
64483;SDS011;50862;51.642;7.964;2022-09-09T00:22:00;8.75;;;8.30;;
64483;SDS011;50862;51.642;7.964;2022-09-09T00:24:42;10.02;;;9.50;;
64483;SDS011;50862;51.642;7.964;2022-09-09T00:27:14;10.35;;;9.85;;
64483;SDS011;50862;51.642;7.964;2022-09-09T00:29:51;9.25;;;8.75;;
64483;SDS011;50862;51.642;7.964;2022-09-09T00:32:24;9.23;;;8.93;;
64483;SDS011;50862;51.642;7.964;2022-09-09T00:34:58;9.23;;;8.82;;
64483;SDS011;50862;51.642;7.964;2022-09-09T00:37:30;9.23;;;8.75;;
64483;SDS011;50862;51.642;7.964;2022-09-09T00:40:01;9.52;;;9.13;;
64483;SDS011;50862;51.642;7.964;2022-09-09T00:42:40;9.90;;;9.52;;
64483;SDS011;50862;51.642;7.964;2022-09-09T00:45:33;10.25;;;9.70;;
64483;SDS011;50862;51.642;7.964;2022-09-09T00:48:13;9.98;;;9.38;;
64483;SDS011;50862;51.642;7.964;2022-09-09T00:50:44;8.90;;;8.50;;
64483;SDS011;50862;51.642;7.964;2022-09-09T00:53:22;9.25;;;8.55;;
64483;SDS011;50862;51.642;7.964;2022-09-09T00:56:00;8.88;;;8.50;;
64483;SDS011;50862;51.642;7.964;2022-09-09T00:58:36;9.43;;;8.93;;
64483;SDS011;50862;51.642;7.964;2022-09-09T01:01:05;9.75;;;9.15;;
64483;SDS011;50862;51.642;7.964;2022-09-09T01:03:40;9.82;;;9.43;;
64483;SDS011;50862;51.642;7.964;2022-09-09T01:06:15;9.73;;;9.13;;
64483;SDS011;50862;51.642;7.964;2022-09-09T01:08:54;8.90;;;8.57;;
64483;SDS011;50862;51.642;7.964;2022-09-09T01:11:32;9.52;;;8.93;;
64483;SDS011;50862;51.642;7.964;2022-09-09T01:14:10;9.93;;;9.13;;
64483;SDS011;50862;51.642;7.964;2022-09-09T01:16:44;9.52;;;9.02;;
64483;SDS011;50862;51.642;7.964;2022-09-09T01:19:18;9.77;;;9.27;;
64483;SDS011;50862;51.642;7.964;2022-09-09T01:22:00;9.52;;;9.13;;
64483;SDS011;50862;51.642;7.964;2022-09-09T01:24:36;9.25;;;8.63;;
64483;SDS011;50862;51.642;7.964;2022-09-09T01:27:11;8.50;;;8.10;;
64483;SDS011;50862;51.642;7.964;2022-09-09T01:29:41;8.52;;;8.20;;
64483;SDS011;50862;51.642;7.964;2022-09-09T01:35:06;9.60;;;8.95;;
64483;SDS011;50862;51.642;7.964;2022-09-09T01:37:39;8.70;;;8.38;;
64483;SDS011;50862;51.642;7.964;2022-09-09T01:40:07;10.43;;;9.70;;
64483;SDS011;50862;51.642;7.964;2022-09-09T01:42:37;9.43;;;9.02;;
64483;SDS011;50862;51.642;7.964;2022-09-09T01:45:06;9.43;;;9.02;;
64483;SDS011;50862;51.642;7.964;2022-09-09T01:47:35;7.63;;;7.32;;
64483;SDS011;50862;51.642;7.964;2022-09-09T01:50:03;8.70;;;8.00;;
64483;SDS011;50862;51.642;7.964;2022-09-09T01:52:32;7.93;;;7.45;;
64483;SDS011;50862;51.642;7.964;2022-09-09T01:55:04;8.50;;;8.00;;
64483;SDS011;50862;51.642;7.964;2022-09-09T01:57:33;8.93;;;8.52;;
64483;SDS011;50862;51.642;7.964;2022-09-09T02:00:08;9.05;;;8.50;;
64483;SDS011;50862;51.642;7.964;2022-09-09T02:02:39;9.35;;;8.75;;
64483;SDS011;50862;51.642;7.964;2022-09-09T02:05:17;8.57;;;8.27;;
64483;SDS011;50862;51.642;7.964;2022-09-09T02:07:53;9.23;;;8.73;;
64483;SDS011;50862;51.642;7.964;2022-09-09T02:10:28;9.00;;;8.50;;
64483;SDS011;50862;51.642;7.964;2022-09-09T02:13:02;8.48;;;8.18;;
64483;SDS011;50862;51.642;7.964;2022-09-09T02:15:37;8.48;;;7.82;;
64483;SDS011;50862;51.642;7.964;2022-09-09T02:18:10;8.15;;;7.75;;
64483;SDS011;50862;51.642;7.964;2022-09-09T02:20:41;8.00;;;7.60;;
64483;SDS011;50862;51.642;7.964;2022-09-09T02:23:12;8.18;;;7.78;;
64483;SDS011;50862;51.642;7.964;2022-09-09T02:25:41;7.77;;;7.37;;
64483;SDS011;50862;51.642;7.964;2022-09-09T02:28:13;9.37;;;8.77;;
64483;SDS011;50862;51.642;7.964;2022-09-09T02:30:44;8.70;;;7.90;;
64483;SDS011;50862;51.642;7.964;2022-09-09T02:33:15;8.07;;;7.68;;
64483;SDS011;50862;51.642;7.964;2022-09-09T02:35:43;8.90;;;8.38;;
64483;SDS011;50862;51.642;7.964;2022-09-09T02:38:13;8.90;;;8.05;;
64483;SDS011;50862;51.642;7.964;2022-09-09T02:40:42;8.65;;;7.95;;
64483;SDS011;50862;51.642;7.964;2022-09-09T02:43:11;9.30;;;8.80;;
64483;SDS011;50862;51.642;7.964;2022-09-09T02:45:44;8.30;;;7.95;;
64483;SDS011;50862;51.642;7.964;2022-09-09T02:48:20;8.70;;;8.10;;
64483;SDS011;50862;51.642;7.964;2022-09-09T02:50:58;9.20;;;8.60;;
64483;SDS011;50862;51.642;7.964;2022-09-09T02:53:34;9.65;;;8.90;;
64483;SDS011;50862;51.642;7.964;2022-09-09T02:56:12;12.35;;;9.80;;
64483;SDS011;50862;51.642;7.964;2022-09-09T02:58:44;8.52;;;7.97;;
64483;SDS011;50862;51.642;7.964;2022-09-09T03:01:13;10.20;;;9.68;;
64483;SDS011;50862;51.642;7.964;2022-09-09T03:03:41;9.70;;;9.20;;
64483;SDS011;50862;51.642;7.964;2022-09-09T03:06:10;9.77;;;9.13;;
64483;SDS011;50862;51.642;7.964;2022-09-09T03:08:39;8.98;;;8.52;;
64483;SDS011;50862;51.642;7.964;2022-09-09T03:11:15;9.80;;;8.88;;
64483;SDS011;50862;51.642;7.964;2022-09-09T03:13:44;10.40;;;9.73;;
64483;SDS011;50862;51.642;7.964;2022-09-09T03:16:13;9.23;;;8.73;;
64483;SDS011;50862;51.642;7.964;2022-09-09T03:18:41;10.88;;;10.15;;
64483;SDS011;50862;51.642;7.964;2022-09-09T03:21:12;10.30;;;9.80;;
64483;SDS011;50862;51.642;7.964;2022-09-09T03:23:40;11.70;;;10.93;;
64483;SDS011;50862;51.642;7.964;2022-09-09T03:26:08;11.00;;;10.15;;
64483;SDS011;50862;51.642;7.964;2022-09-09T03:28:37;10.00;;;9.55;;
64483;SDS011;50862;51.642;7.964;2022-09-09T03:31:06;9.63;;;9.13;;
64483;SDS011;50862;51.642;7.964;2022-09-09T03:33:36;10.32;;;9.73;;
64483;SDS011;50862;51.642;7.964;2022-09-09T03:36:05;10.40;;;9.73;;
64483;SDS011;50862;51.642;7.964;2022-09-09T03:38:33;10.57;;;10.00;;
64483;SDS011;50862;51.642;7.964;2022-09-09T03:41:02;9.77;;;9.20;;
64483;SDS011;50862;51.642;7.964;2022-09-09T03:43:34;9.70;;;9.05;;
64483;SDS011;50862;51.642;7.964;2022-09-09T03:46:02;10.40;;;9.80;;
64483;SDS011;50862;51.642;7.964;2022-09-09T03:48:32;10.55;;;10.05;;
64483;SDS011;50862;51.642;7.964;2022-09-09T03:51:00;10.38;;;9.98;;
64483;SDS011;50862;51.642;7.964;2022-09-09T03:53:29;9.38;;;8.98;;
64483;SDS011;50862;51.642;7.964;2022-09-09T03:55:58;10.55;;;9.95;;
64483;SDS011;50862;51.642;7.964;2022-09-09T03:58:27;10.32;;;9.93;;
64483;SDS011;50862;51.642;7.964;2022-09-09T04:00:55;9.95;;;9.52;;
64483;SDS011;50862;51.642;7.964;2022-09-09T04:03:25;10.18;;;9.63;;
64483;SDS011;50862;51.642;7.964;2022-09-09T04:05:56;10.40;;;9.82;;
64483;SDS011;50862;51.642;7.964;2022-09-09T04:08:26;9.80;;;9.30;;
64483;SDS011;50862;51.642;7.964;2022-09-09T04:10:54;11.35;;;10.50;;
64483;SDS011;50862;51.642;7.964;2022-09-09T04:13:24;10.13;;;9.50;;
64483;SDS011;50862;51.642;7.964;2022-09-09T04:15:53;10.02;;;9.60;;
64483;SDS011;50862;51.642;7.964;2022-09-09T04:18:23;9.95;;;9.45;;
64483;SDS011;50862;51.642;7.964;2022-09-09T04:20:52;10.43;;;9.75;;
64483;SDS011;50862;51.642;7.964;2022-09-09T04:23:22;11.80;;;11.05;;
64483;SDS011;50862;51.642;7.964;2022-09-09T04:25:52;13.20;;;12.20;;
64483;SDS011;50862;51.642;7.964;2022-09-09T04:28:22;9.90;;;9.38;;
64483;SDS011;50862;51.642;7.964;2022-09-09T04:30:52;9.98;;;9.40;;
64483;SDS011;50862;51.642;7.964;2022-09-09T04:33:20;11.38;;;10.43;;
64483;SDS011;50862;51.642;7.964;2022-09-09T04:35:49;11.27;;;10.10;;
64483;SDS011;50862;51.642;7.964;2022-09-09T04:38:19;9.95;;;9.55;;
64483;SDS011;50862;51.642;7.964;2022-09-09T04:40:50;11.55;;;10.77;;
64483;SDS011;50862;51.642;7.964;2022-09-09T04:43:20;10.02;;;9.40;;
64483;SDS011;50862;51.642;7.964;2022-09-09T04:45:49;10.18;;;9.38;;
64483;SDS011;50862;51.642;7.964;2022-09-09T04:48:18;10.00;;;9.40;;
64483;SDS011;50862;51.642;7.964;2022-09-09T04:50:53;9.20;;;8.70;;
64483;SDS011;50862;51.642;7.964;2022-09-09T04:53:22;11.23;;;10.40;;
64483;SDS011;50862;51.642;7.964;2022-09-09T04:55:53;10.43;;;9.95;;
64483;SDS011;50862;51.642;7.964;2022-09-09T04:58:29;10.10;;;9.40;;
64483;SDS011;50862;51.642;7.964;2022-09-09T05:01:02;9.60;;;8.85;;
64483;SDS011;50862;51.642;7.964;2022-09-09T05:03:31;10.18;;;9.55;;
64483;SDS011;50862;51.642;7.964;2022-09-09T05:06:03;10.80;;;10.15;;
64483;SDS011;50862;51.642;7.964;2022-09-09T05:08:34;9.85;;;9.18;;
64483;SDS011;50862;51.642;7.964;2022-09-09T05:11:11;9.70;;;9.05;;
64483;SDS011;50862;51.642;7.964;2022-09-09T05:13:41;9.43;;;8.88;;
64483;SDS011;50862;51.642;7.964;2022-09-09T05:16:10;10.98;;;10.38;;
64483;SDS011;50862;51.642;7.964;2022-09-09T05:18:38;9.82;;;8.90;;
64483;SDS011;50862;51.642;7.964;2022-09-09T05:21:06;10.50;;;9.85;;
64483;SDS011;50862;51.642;7.964;2022-09-09T05:23:35;11.10;;;10.15;;
64483;SDS011;50862;51.642;7.964;2022-09-09T05:26:05;10.88;;;10.07;;
64483;SDS011;50862;51.642;7.964;2022-09-09T05:28:34;11.20;;;10.52;;
64483;SDS011;50862;51.642;7.964;2022-09-09T05:31:03;10.48;;;9.98;;
64483;SDS011;50862;51.642;7.964;2022-09-09T05:33:34;11.50;;;10.68;;
64483;SDS011;50862;51.642;7.964;2022-09-09T05:36:04;12.27;;;11.48;;
64483;SDS011;50862;51.642;7.964;2022-09-09T05:38:34;10.05;;;9.20;;
64483;SDS011;50862;51.642;7.964;2022-09-09T05:41:03;10.38;;;9.65;;
64483;SDS011;50862;51.642;7.964;2022-09-09T05:43:32;10.23;;;9.52;;
64483;SDS011;50862;51.642;7.964;2022-09-09T05:46:02;10.55;;;10.02;;
64483;SDS011;50862;51.642;7.964;2022-09-09T05:48:32;9.80;;;9.20;;
64483;SDS011;50862;51.642;7.964;2022-09-09T05:51:02;11.32;;;10.30;;
64483;SDS011;50862;51.642;7.964;2022-09-09T05:53:31;11.50;;;10.75;;
64483;SDS011;50862;51.642;7.964;2022-09-09T05:56:00;11.20;;;10.45;;
64483;SDS011;50862;51.642;7.964;2022-09-09T05:58:32;10.60;;;10.00;;
64483;SDS011;50862;51.642;7.964;2022-09-09T06:01:01;11.25;;;10.57;;
64483;SDS011;50862;51.642;7.964;2022-09-09T06:03:30;10.65;;;9.95;;
64483;SDS011;50862;51.642;7.964;2022-09-09T06:05:59;11.43;;;10.80;;
64483;SDS011;50862;51.642;7.964;2022-09-09T06:08:28;10.88;;;10.18;;
64483;SDS011;50862;51.642;7.964;2022-09-09T06:11:00;11.00;;;10.30;;
64483;SDS011;50862;51.642;7.964;2022-09-09T06:13:31;10.75;;;10.23;;
64483;SDS011;50862;51.642;7.964;2022-09-09T06:16:00;11.07;;;10.57;;
64483;SDS011;50862;51.642;7.964;2022-09-09T06:18:28;10.98;;;10.20;;
64483;SDS011;50862;51.642;7.964;2022-09-09T06:20:57;12.02;;;11.10;;
64483;SDS011;50862;51.642;7.964;2022-09-09T06:23:27;10.70;;;10.07;;
64483;SDS011;50862;51.642;7.964;2022-09-09T06:26:04;10.52;;;9.52;;
64483;SDS011;50862;51.642;7.964;2022-09-09T06:28:35;11.82;;;10.93;;
64483;SDS011;50862;51.642;7.964;2022-09-09T06:31:04;11.32;;;10.80;;
64483;SDS011;50862;51.642;7.964;2022-09-09T06:33:34;11.27;;;10.35;;
64483;SDS011;50862;51.642;7.964;2022-09-09T06:36:05;10.50;;;9.50;;
64483;SDS011;50862;51.642;7.964;2022-09-09T06:38:34;9.38;;;8.82;;
64483;SDS011;50862;51.642;7.964;2022-09-09T06:41:03;10.07;;;9.40;;
64483;SDS011;50862;51.642;7.964;2022-09-09T06:43:32;9.50;;;8.93;;
64483;SDS011;50862;51.642;7.964;2022-09-09T06:46:02;12.20;;;11.18;;
64483;SDS011;50862;51.642;7.964;2022-09-09T06:48:32;10.60;;;9.63;;
64483;SDS011;50862;51.642;7.964;2022-09-09T06:51:01;10.48;;;9.68;;
64483;SDS011;50862;51.642;7.964;2022-09-09T06:53:31;9.63;;;9.02;;
64483;SDS011;50862;51.642;7.964;2022-09-09T06:56:00;9.98;;;9.40;;
64483;SDS011;50862;51.642;7.964;2022-09-09T06:58:28;10.93;;;10.40;;
64483;SDS011;50862;51.642;7.964;2022-09-09T07:01:05;9.68;;;9.18;;
64483;SDS011;50862;51.642;7.964;2022-09-09T07:03:34;11.65;;;10.85;;
64483;SDS011;50862;51.642;7.964;2022-09-09T07:06:02;9.70;;;9.35;;
64483;SDS011;50862;51.642;7.964;2022-09-09T07:08:30;11.18;;;10.48;;
64483;SDS011;50862;51.642;7.964;2022-09-09T07:11:01;10.52;;;9.80;;
64483;SDS011;50862;51.642;7.964;2022-09-09T07:13:37;10.05;;;9.65;;
64483;SDS011;50862;51.642;7.964;2022-09-09T07:16:07;10.75;;;10.15;;
64483;SDS011;50862;51.642;7.964;2022-09-09T07:18:39;9.73;;;9.27;;
64483;SDS011;50862;51.642;7.964;2022-09-09T07:21:08;11.40;;;10.23;;
64483;SDS011;50862;51.642;7.964;2022-09-09T07:23:38;10.20;;;9.68;;
64483;SDS011;50862;51.642;7.964;2022-09-09T07:26:09;11.45;;;10.85;;
64483;SDS011;50862;51.642;7.964;2022-09-09T07:28:38;9.80;;;8.95;;
64483;SDS011;50862;51.642;7.964;2022-09-09T07:31:12;10.55;;;9.85;;
64483;SDS011;50862;51.642;7.964;2022-09-09T07:33:42;11.02;;;10.32;;
64483;SDS011;50862;51.642;7.964;2022-09-09T07:36:12;11.43;;;10.63;;
64483;SDS011;50862;51.642;7.964;2022-09-09T07:38:42;11.00;;;10.50;;
64483;SDS011;50862;51.642;7.964;2022-09-09T07:41:12;11.98;;;11.27;;
64483;SDS011;50862;51.642;7.964;2022-09-09T07:43:44;10.30;;;9.80;;
64483;SDS011;50862;51.642;7.964;2022-09-09T07:46:16;10.75;;;10.05;;
64483;SDS011;50862;51.642;7.964;2022-09-09T07:48:45;11.18;;;10.68;;
64483;SDS011;50862;51.642;7.964;2022-09-09T07:51:18;11.80;;;11.25;;
64483;SDS011;50862;51.642;7.964;2022-09-09T07:53:50;11.98;;;11.10;;
64483;SDS011;50862;51.642;7.964;2022-09-09T07:56:19;11.80;;;11.05;;
64483;SDS011;50862;51.642;7.964;2022-09-09T07:58:49;11.77;;;11.13;;
64483;SDS011;50862;51.642;7.964;2022-09-09T08:01:20;10.05;;;9.45;;
64483;SDS011;50862;51.642;7.964;2022-09-09T08:03:53;11.60;;;10.80;;
64483;SDS011;50862;51.642;7.964;2022-09-09T08:06:25;9.98;;;9.57;;
64483;SDS011;50862;51.642;7.964;2022-09-09T08:08:53;11.43;;;10.75;;
64483;SDS011;50862;51.642;7.964;2022-09-09T08:11:22;12.27;;;11.45;;
64483;SDS011;50862;51.642;7.964;2022-09-09T08:13:52;12.57;;;11.77;;
64483;SDS011;50862;51.642;7.964;2022-09-09T08:16:29;11.10;;;10.27;;
64483;SDS011;50862;51.642;7.964;2022-09-09T08:18:58;10.98;;;10.38;;
64483;SDS011;50862;51.642;7.964;2022-09-09T08:21:28;10.90;;;10.38;;
64483;SDS011;50862;51.642;7.964;2022-09-09T08:23:58;11.63;;;11.02;;
64483;SDS011;50862;51.642;7.964;2022-09-09T08:26:28;12.20;;;11.52;;
64483;SDS011;50862;51.642;7.964;2022-09-09T08:28:59;13.43;;;12.50;;
64483;SDS011;50862;51.642;7.964;2022-09-09T08:31:29;12.68;;;11.88;;
64483;SDS011;50862;51.642;7.964;2022-09-09T08:34:00;11.65;;;10.73;;
64483;SDS011;50862;51.642;7.964;2022-09-09T08:36:30;10.57;;;10.07;;
64483;SDS011;50862;51.642;7.964;2022-09-09T08:39:00;12.77;;;12.15;;
64483;SDS011;50862;51.642;7.964;2022-09-09T08:41:40;12.40;;;11.65;;
64483;SDS011;50862;51.642;7.964;2022-09-09T08:44:28;12.07;;;11.45;;
64483;SDS011;50862;51.642;7.964;2022-09-09T08:47:07;12.95;;;12.27;;
64483;SDS011;50862;51.642;7.964;2022-09-09T08:49:51;12.32;;;11.27;;
64483;SDS011;50862;51.642;7.964;2022-09-09T08:52:29;13.30;;;12.60;;
64483;SDS011;50862;51.642;7.964;2022-09-09T08:54:59;12.73;;;11.82;;
64483;SDS011;50862;51.642;7.964;2022-09-09T08:57:38;13.43;;;12.63;;
64483;SDS011;50862;51.642;7.964;2022-09-09T09:00:08;12.82;;;12.15;;
64483;SDS011;50862;51.642;7.964;2022-09-09T09:02:40;14.02;;;13.23;;
64483;SDS011;50862;51.642;7.964;2022-09-09T09:05:18;12.73;;;11.90;;
64483;SDS011;50862;51.642;7.964;2022-09-09T09:07:54;14.02;;;13.18;;
64483;SDS011;50862;51.642;7.964;2022-09-09T09:10:33;14.30;;;13.35;;
64483;SDS011;50862;51.642;7.964;2022-09-09T09:13:12;13.52;;;12.32;;
64483;SDS011;50862;51.642;7.964;2022-09-09T09:15:43;13.30;;;12.63;;
64483;SDS011;50862;51.642;7.964;2022-09-09T09:18:15;12.45;;;11.75;;
64483;SDS011;50862;51.642;7.964;2022-09-09T09:20:47;13.27;;;12.55;;
64483;SDS011;50862;51.642;7.964;2022-09-09T09:23:21;12.63;;;11.68;;
64483;SDS011;50862;51.642;7.964;2022-09-09T09:25:51;15.43;;;14.57;;
64483;SDS011;50862;51.642;7.964;2022-09-09T09:28:24;14.93;;;14.02;;
64483;SDS011;50862;51.642;7.964;2022-09-09T09:30:55;16.00;;;14.77;;
64483;SDS011;50862;51.642;7.964;2022-09-09T09:33:27;13.20;;;12.50;;
64483;SDS011;50862;51.642;7.964;2022-09-09T09:35:59;14.95;;;13.73;;
64483;SDS011;50862;51.642;7.964;2022-09-09T09:38:29;13.82;;;13.00;;
64483;SDS011;50862;51.642;7.964;2022-09-09T09:41:17;13.00;;;12.13;;
64483;SDS011;50862;51.642;7.964;2022-09-09T09:43:56;11.18;;;10.48;;
64483;SDS011;50862;51.642;7.964;2022-09-09T09:46:25;13.10;;;12.20;;
64483;SDS011;50862;51.642;7.964;2022-09-09T09:48:58;11.63;;;11.00;;
64483;SDS011;50862;51.642;7.964;2022-09-09T09:51:27;13.10;;;12.45;;
64483;SDS011;50862;51.642;7.964;2022-09-09T09:54:03;11.77;;;10.98;;
64483;SDS011;50862;51.642;7.964;2022-09-09T09:56:41;14.20;;;13.25;;
64483;SDS011;50862;51.642;7.964;2022-09-09T09:59:19;15.52;;;14.27;;
64483;SDS011;50862;51.642;7.964;2022-09-09T10:02:13;14.35;;;13.55;;
64483;SDS011;50862;51.642;7.964;2022-09-09T10:04:44;15.90;;;15.00;;
64483;SDS011;50862;51.642;7.964;2022-09-09T10:07:13;15.30;;;14.60;;
64483;SDS011;50862;51.642;7.964;2022-09-09T10:09:46;16.02;;;15.23;;
64483;SDS011;50862;51.642;7.964;2022-09-09T10:12:20;13.93;;;12.82;;
64483;SDS011;50862;51.642;7.964;2022-09-09T10:15:01;12.48;;;11.68;;
64483;SDS011;50862;51.642;7.964;2022-09-09T10:17:53;13.75;;;13.07;;
64483;SDS011;50862;51.642;7.964;2022-09-09T10:20:32;14.70;;;13.90;;
64483;SDS011;50862;51.642;7.964;2022-09-09T10:23:14;14.70;;;13.90;;
64483;SDS011;50862;51.642;7.964;2022-09-09T10:25:57;14.52;;;13.68;;
64483;SDS011;50862;51.642;7.964;2022-09-09T10:29:12;14.50;;;13.82;;
64483;SDS011;50862;51.642;7.964;2022-09-09T10:31:53;15.00;;;14.20;;
64483;SDS011;50862;51.642;7.964;2022-09-09T10:34:37;16.05;;;15.25;;
64483;SDS011;50862;51.642;7.964;2022-09-09T10:37:22;14.77;;;13.82;;
64483;SDS011;50862;51.642;7.964;2022-09-09T10:40:02;13.90;;;13.20;;
64483;SDS011;50862;51.642;7.964;2022-09-09T10:42:43;12.90;;;12.13;;
64483;SDS011;50862;51.642;7.964;2022-09-09T10:45:15;13.07;;;12.38;;
64483;SDS011;50862;51.642;7.964;2022-09-09T10:47:52;14.02;;;13.13;;
64483;SDS011;50862;51.642;7.964;2022-09-09T10:50:40;16.65;;;15.50;;
64483;SDS011;50862;51.642;7.964;2022-09-09T10:53:39;15.35;;;14.52;;
64483;SDS011;50862;51.642;7.964;2022-09-09T10:56:16;15.43;;;14.27;;
64483;SDS011;50862;51.642;7.964;2022-09-09T10:58:46;15.05;;;14.25;;
64483;SDS011;50862;51.642;7.964;2022-09-09T11:01:20;17.08;;;16.17;;
64483;SDS011;50862;51.642;7.964;2022-09-09T11:03:52;16.98;;;16.02;;
64483;SDS011;50862;51.642;7.964;2022-09-09T11:06:25;16.10;;;15.13;;
64483;SDS011;50862;51.642;7.964;2022-09-09T11:09:00;15.88;;;14.98;;
64483;SDS011;50862;51.642;7.964;2022-09-09T11:11:32;16.80;;;15.65;;
64483;SDS011;50862;51.642;7.964;2022-09-09T11:14:05;15.48;;;14.48;;
64483;SDS011;50862;51.642;7.964;2022-09-09T11:16:41;14.68;;;13.98;;
64483;SDS011;50862;51.642;7.964;2022-09-09T11:19:16;17.88;;;16.42;;
64483;SDS011;50862;51.642;7.964;2022-09-09T11:21:50;16.85;;;15.77;;
64483;SDS011;50862;51.642;7.964;2022-09-09T11:24:23;17.27;;;16.38;;
64483;SDS011;50862;51.642;7.964;2022-09-09T11:26:56;16.67;;;15.68;;
64483;SDS011;50862;51.642;7.964;2022-09-09T11:29:42;15.23;;;14.32;;
64483;SDS011;50862;51.642;7.964;2022-09-09T11:32:31;15.73;;;15.02;;
64483;SDS011;50862;51.642;7.964;2022-09-09T11:35:20;17.40;;;16.30;;
64483;SDS011;50862;51.642;7.964;2022-09-09T11:40:58;14.70;;;13.90;;
64483;SDS011;50862;51.642;7.964;2022-09-09T11:43:29;13.18;;;12.38;;
64483;SDS011;50862;51.642;7.964;2022-09-09T11:46:00;13.55;;;12.85;;
64483;SDS011;50862;51.642;7.964;2022-09-09T11:48:32;14.10;;;13.20;;
64483;SDS011;50862;51.642;7.964;2022-09-09T11:51:02;12.27;;;11.52;;
64483;SDS011;50862;51.642;7.964;2022-09-09T11:53:47;12.52;;;11.73;;
64483;SDS011;50862;51.642;7.964;2022-09-09T11:56:25;12.85;;;12.05;;
64483;SDS011;50862;51.642;7.964;2022-09-09T11:58:57;11.38;;;10.77;;
64483;SDS011;50862;51.642;7.964;2022-09-09T12:01:29;12.57;;;11.98;;
64483;SDS011;50862;51.642;7.964;2022-09-09T12:04:06;10.65;;;10.07;;
64483;SDS011;50862;51.642;7.964;2022-09-09T12:07:00;11.27;;;10.75;;
64483;SDS011;50862;51.642;7.964;2022-09-09T12:09:43;12.48;;;11.85;;
64483;SDS011;50862;51.642;7.964;2022-09-09T12:15:23;12.52;;;11.82;;
64483;SDS011;50862;51.642;7.964;2022-09-09T12:17:55;11.88;;;11.10;;
64483;SDS011;50862;51.642;7.964;2022-09-09T12:20:31;13.75;;;13.05;;
64483;SDS011;50862;51.642;7.964;2022-09-09T12:23:10;14.75;;;13.95;;
64483;SDS011;50862;51.642;7.964;2022-09-09T12:25:48;13.38;;;12.77;;
64483;SDS011;50862;51.642;7.964;2022-09-09T12:28:47;15.68;;;14.73;;
64483;SDS011;50862;51.642;7.964;2022-09-09T12:31:24;14.80;;;13.98;;
64483;SDS011;50862;51.642;7.964;2022-09-09T12:34:03;13.00;;;12.15;;
64483;SDS011;50862;51.642;7.964;2022-09-09T12:36:37;13.48;;;12.93;;
64483;SDS011;50862;51.642;7.964;2022-09-09T12:39:10;13.73;;;13.02;;
64483;SDS011;50862;51.642;7.964;2022-09-09T12:41:51;14.43;;;13.63;;
64483;SDS011;50862;51.642;7.964;2022-09-09T12:44:25;13.48;;;12.77;;
64483;SDS011;50862;51.642;7.964;2022-09-09T12:46:55;14.93;;;14.23;;
64483;SDS011;50862;51.642;7.964;2022-09-09T12:49:29;12.90;;;12.20;;
64483;SDS011;50862;51.642;7.964;2022-09-09T12:52:01;14.55;;;13.85;;
64483;SDS011;50862;51.642;7.964;2022-09-09T12:54:33;13.30;;;12.60;;
64483;SDS011;50862;51.642;7.964;2022-09-09T12:57:03;13.82;;;13.02;;
64483;SDS011;50862;51.642;7.964;2022-09-09T12:59:36;12.82;;;12.23;;
64483;SDS011;50862;51.642;7.964;2022-09-09T13:02:16;14.25;;;13.55;;
64483;SDS011;50862;51.642;7.964;2022-09-09T13:04:47;13.82;;;13.00;;
64483;SDS011;50862;51.642;7.964;2022-09-09T13:07:16;14.82;;;14.02;;
64483;SDS011;50862;51.642;7.964;2022-09-09T13:09:45;12.93;;;12.32;;
64483;SDS011;50862;51.642;7.964;2022-09-09T13:12:16;14.63;;;13.82;;
64483;SDS011;50862;51.642;7.964;2022-09-09T13:14:48;12.32;;;11.73;;
64483;SDS011;50862;51.642;7.964;2022-09-09T13:17:20;13.55;;;12.93;;
64483;SDS011;50862;51.642;7.964;2022-09-09T13:19:49;14.23;;;13.52;;
64483;SDS011;50862;51.642;7.964;2022-09-09T13:22:23;13.38;;;12.75;;
64483;SDS011;50862;51.642;7.964;2022-09-09T13:25:01;12.02;;;11.52;;
64483;SDS011;50862;51.642;7.964;2022-09-09T13:27:32;13.02;;;12.43;;
64483;SDS011;50862;51.642;7.964;2022-09-09T13:33:00;11.70;;;11.07;;
64483;SDS011;50862;51.642;7.964;2022-09-09T13:35:29;13.77;;;13.15;;
64483;SDS011;50862;51.642;7.964;2022-09-09T13:37:59;12.95;;;12.15;;
64483;SDS011;50862;51.642;7.964;2022-09-09T13:40:34;13.98;;;13.35;;
64483;SDS011;50862;51.642;7.964;2022-09-09T13:43:03;11.30;;;10.88;;
64483;SDS011;50862;51.642;7.964;2022-09-09T13:45:32;13.45;;;12.65;;
64483;SDS011;50862;51.642;7.964;2022-09-09T13:48:08;13.25;;;12.52;;
64483;SDS011;50862;51.642;7.964;2022-09-09T13:50:37;12.93;;;12.18;;
64483;SDS011;50862;51.642;7.964;2022-09-09T13:53:06;14.13;;;13.43;;
64483;SDS011;50862;51.642;7.964;2022-09-09T13:55:35;14.63;;;13.80;;
64483;SDS011;50862;51.642;7.964;2022-09-09T13:58:05;13.50;;;12.75;;
64483;SDS011;50862;51.642;7.964;2022-09-09T14:00:34;13.13;;;12.30;;
64483;SDS011;50862;51.642;7.964;2022-09-09T14:03:02;14.63;;;13.82;;
64483;SDS011;50862;51.642;7.964;2022-09-09T14:05:31;16.40;;;15.52;;
64483;SDS011;50862;51.642;7.964;2022-09-09T14:08:00;13.40;;;12.68;;
64483;SDS011;50862;51.642;7.964;2022-09-09T14:10:30;16.00;;;15.10;;
64483;SDS011;50862;51.642;7.964;2022-09-09T14:12:58;16.23;;;15.43;;
64483;SDS011;50862;51.642;7.964;2022-09-09T14:15:26;14.13;;;13.43;;
64483;SDS011;50862;51.642;7.964;2022-09-09T14:17:56;16.55;;;15.65;;
64483;SDS011;50862;51.642;7.964;2022-09-09T14:20:25;14.63;;;13.95;;
64483;SDS011;50862;51.642;7.964;2022-09-09T14:22:53;14.27;;;13.65;;
64483;SDS011;50862;51.642;7.964;2022-09-09T14:25:23;13.75;;;13.05;;
64483;SDS011;50862;51.642;7.964;2022-09-09T14:27:51;16.77;;;15.75;;
64483;SDS011;50862;51.642;7.964;2022-09-09T14:30:19;15.82;;;14.82;;
64483;SDS011;50862;51.642;7.964;2022-09-09T14:32:47;13.85;;;13.20;;
64483;SDS011;50862;51.642;7.964;2022-09-09T14:35:16;16.10;;;15.27;;
64483;SDS011;50862;51.642;7.964;2022-09-09T14:37:44;14.50;;;13.77;;
64483;SDS011;50862;51.642;7.964;2022-09-09T14:40:13;12.40;;;11.75;;
64483;SDS011;50862;51.642;7.964;2022-09-09T14:42:41;15.35;;;14.65;;
64483;SDS011;50862;51.642;7.964;2022-09-09T14:45:10;14.82;;;13.88;;
64483;SDS011;50862;51.642;7.964;2022-09-09T14:47:38;14.40;;;13.68;;
64483;SDS011;50862;51.642;7.964;2022-09-09T14:50:06;15.52;;;14.82;;
64483;SDS011;50862;51.642;7.964;2022-09-09T14:52:36;15.00;;;14.25;;
64483;SDS011;50862;51.642;7.964;2022-09-09T14:55:05;18.00;;;17.08;;
64483;SDS011;50862;51.642;7.964;2022-09-09T14:57:33;15.65;;;14.93;;
64483;SDS011;50862;51.642;7.964;2022-09-09T15:00:02;15.50;;;14.50;;
64483;SDS011;50862;51.642;7.964;2022-09-09T15:02:31;15.10;;;14.30;;
64483;SDS011;50862;51.642;7.964;2022-09-09T15:04:59;14.27;;;13.48;;
64483;SDS011;50862;51.642;7.964;2022-09-09T15:07:27;15.02;;;14.30;;
64483;SDS011;50862;51.642;7.964;2022-09-09T15:09:57;11.95;;;11.45;;
64483;SDS011;50862;51.642;7.964;2022-09-09T15:12:25;13.77;;;12.98;;
64483;SDS011;50862;51.642;7.964;2022-09-09T15:14:54;12.90;;;12.10;;